createdAt,value
2022-08-22T00:01:17.914Z,21.60
2022-08-22T00:02:49.791Z,22.83
2022-08-22T00:02:58.275Z,25.94
2022-08-22T00:03:06.414Z,22.40
2022-08-22T00:03:08.059Z,22.03
2022-08-22T00:04:00.793Z,21.61
2022-08-22T00:06:44.546Z,21.62
2022-08-22T00:09:33.095Z,21.63
2022-08-22T00:12:16.532Z,21.64
2022-08-22T00:14:52.077Z,21.64
2022-08-22T00:17:37.439Z,21.60
2022-08-22T00:20:14.401Z,21.58
2022-08-22T00:22:52.004Z,21.56
2022-08-22T00:25:38.670Z,21.51
2022-08-22T00:28:15.038Z,21.49
2022-08-22T00:30:55.526Z,21.46
2022-08-22T00:33:35.263Z,21.44
2022-08-22T00:36:20.560Z,21.42
2022-08-22T00:39:00.133Z,21.44
2022-08-22T00:42:32.058Z,21.40
2022-08-22T00:45:32.544Z,21.43
2022-08-22T00:48:49.288Z,21.42
2022-08-22T00:51:55.189Z,21.37
2022-08-22T00:54:40.648Z,21.37
2022-08-22T00:57:41.451Z,21.36
2022-08-22T01:00:18.516Z,21.33
2022-08-22T01:03:43.508Z,21.31
2022-08-22T01:06:28.979Z,21.30
2022-08-22T01:12:11.977Z,21.32
2022-08-22T01:14:49.731Z,21.31
2022-08-22T01:17:55.359Z,21.27
2022-08-22T01:21:38.503Z,21.21
2022-08-22T01:25:25.751Z,21.19
2022-08-22T01:28:35.346Z,21.17
2022-08-22T01:31:52.247Z,21.14
2022-08-22T01:35:06.107Z,21.14
2022-08-22T01:38:17.236Z,21.15
2022-08-22T01:41:45.638Z,21.13
2022-08-22T01:44:38.673Z,21.13
2022-08-22T01:47:15.086Z,21.12
2022-08-22T01:49:49.852Z,21.12
2022-08-22T01:52:38.091Z,21.08
2022-08-22T01:55:15.067Z,21.07
2022-08-22T01:57:55.801Z,21.07
2022-08-22T02:00:34.750Z,21.07
2022-08-22T02:03:23.261Z,21.02
2022-08-22T02:06:00.031Z,21.04
2022-08-22T02:08:42.356Z,21.02
2022-08-22T02:11:14.191Z,21.02
2022-08-22T02:13:58.324Z,21.00
2022-08-22T02:16:38.572Z,21.03
2022-08-22T02:19:27.047Z,21.02
2022-08-22T02:22:01.217Z,21.04
2022-08-22T02:24:47.429Z,21.04
2022-08-22T02:27:31.399Z,21.02
2022-08-22T02:30:08.616Z,20.99
2022-08-22T02:32:55.394Z,20.97
2022-08-22T02:35:36.923Z,20.98
2022-08-22T02:38:20.953Z,20.98
2022-08-22T02:41:05.033Z,20.98
2022-08-22T02:43:45.531Z,20.97
2022-08-22T02:46:29.058Z,20.91
2022-08-22T02:49:09.878Z,20.90
2022-08-22T02:51:51.535Z,20.87
2022-08-22T02:54:28.983Z,20.86
2022-08-22T02:57:03.812Z,20.85
2022-08-22T02:59:38.157Z,20.83
2022-08-22T03:02:36.413Z,20.80
2022-08-22T03:05:23.611Z,20.77
2022-08-22T03:08:03.790Z,20.76
2022-08-22T03:10:41.015Z,20.75
2022-08-22T03:13:14.831Z,20.74
2022-08-22T03:15:50.705Z,20.72
2022-08-22T03:18:33.597Z,20.68
2022-08-22T03:21:34.080Z,20.62
2022-08-22T03:24:13.128Z,20.62
2022-08-22T03:26:58.905Z,20.61
2022-08-22T03:29:35.148Z,20.59
2022-08-22T03:32:15.753Z,20.58
2022-08-22T03:35:00.437Z,20.55
2022-08-22T03:37:40.550Z,20.54
2022-08-22T03:40:31.637Z,20.51
2022-08-22T03:43:40.381Z,20.47
2022-08-22T03:46:46.904Z,20.44
2022-08-22T03:49:59.342Z,20.41
2022-08-22T03:53:12.150Z,20.40
2022-08-22T03:56:26.274Z,20.35
2022-08-22T03:59:49.605Z,20.29
2022-08-22T04:02:58.525Z,20.21
2022-08-22T04:06:11.447Z,20.16
2022-08-22T04:09:38.281Z,20.12
2022-08-22T04:12:28.785Z,20.09
2022-08-22T04:15:36.767Z,20.07
2022-08-22T04:18:47.589Z,20.06
2022-08-22T04:21:53.969Z,20.07
2022-08-22T04:25:03.618Z,20.08
2022-08-22T04:27:40.979Z,20.09
2022-08-22T04:30:19.124Z,20.10
2022-08-22T04:32:55.899Z,20.09
2022-08-22T04:35:34.215Z,20.09
2022-08-22T04:38:13.182Z,20.10
2022-08-22T04:40:50.315Z,20.11
2022-08-22T04:43:27.117Z,20.10
2022-08-22T04:46:08.061Z,20.10
2022-08-22T04:48:42.086Z,20.10
2022-08-22T04:51:26.148Z,20.07
2022-08-22T04:54:20.514Z,20.04
2022-08-22T04:57:12.000Z,20.03
2022-08-22T04:59:40.885Z,20.02
2022-08-22T05:02:13.146Z,20.01
2022-08-22T05:04:46.156Z,20.00
2022-08-22T05:07:21.173Z,19.97
2022-08-22T05:09:54.198Z,19.95
2022-08-22T05:12:29.607Z,19.93
2022-08-22T05:15:06.633Z,19.91
2022-08-22T05:17:40.210Z,19.90
2022-08-22T05:20:16.203Z,19.89
2022-08-22T05:22:51.748Z,19.88
2022-08-22T05:25:26.119Z,19.89
2022-08-22T05:28:06.498Z,19.90
2022-08-22T05:30:36.792Z,19.91
2022-08-22T05:33:27.558Z,19.89
2022-08-22T05:36:03.893Z,19.90
2022-08-22T05:38:40.141Z,19.93
2022-08-22T05:41:13.310Z,19.95
2022-08-22T05:43:45.210Z,19.96
2022-08-22T05:46:22.039Z,19.99
2022-08-22T05:48:59.947Z,20.06
2022-08-22T05:51:48.043Z,20.10
2022-08-22T05:54:22.761Z,20.15
2022-08-22T05:57:15.053Z,20.20
2022-08-22T05:59:47.623Z,20.23
2022-08-22T06:02:22.716Z,20.28
2022-08-22T06:04:56.284Z,20.29
2022-08-22T06:07:32.973Z,20.29
2022-08-22T06:10:18.685Z,20.28
2022-08-22T06:12:56.939Z,20.32
2022-08-22T06:15:47.783Z,20.34
2022-08-22T06:18:22.010Z,20.37
2022-08-22T06:20:56.491Z,20.35
2022-08-22T06:23:30.916Z,20.39
2022-08-22T06:26:02.652Z,20.42
2022-08-22T06:28:55.031Z,20.46
2022-08-22T06:31:30.514Z,20.50
2022-08-22T06:34:08.272Z,20.53
2022-08-22T06:36:39.893Z,20.56
2022-08-22T06:39:18.630Z,20.57
2022-08-22T06:41:53.824Z,20.60
2022-08-22T06:44:27.305Z,20.66
2022-08-22T06:47:00.221Z,20.70
2022-08-22T06:49:31.718Z,20.71
2022-08-22T06:52:06.559Z,20.69
2022-08-22T06:54:40.476Z,20.68
2022-08-22T06:57:31.037Z,20.66
2022-08-22T07:00:07.267Z,20.70
2022-08-22T07:02:42.333Z,20.76
2022-08-22T07:05:18.874Z,20.78
2022-08-22T07:07:47.935Z,20.83
2022-08-22T07:10:19.158Z,20.85
2022-08-22T07:12:54.186Z,20.89
2022-08-22T07:15:34.052Z,20.93
2022-08-22T07:18:08.635Z,20.98
2022-08-22T07:20:42.286Z,21.00
2022-08-22T07:23:14.155Z,20.99
2022-08-22T07:25:54.362Z,20.99
2022-08-22T07:28:51.291Z,21.00
2022-08-22T07:31:43.685Z,21.00
2022-08-22T07:34:37.618Z,21.00
2022-08-22T07:37:12.142Z,21.04
2022-08-22T07:39:51.393Z,21.09
2022-08-22T07:42:31.280Z,21.14
2022-08-22T07:45:10.357Z,21.21
2022-08-22T07:48:04.491Z,21.29
2022-08-22T07:50:37.034Z,21.37
2022-08-22T07:53:15.749Z,21.43
2022-08-22T07:55:49.524Z,21.49
2022-08-22T07:58:20.010Z,21.57
2022-08-22T08:00:51.634Z,21.59
2022-08-22T08:03:25.220Z,21.64
2022-08-22T08:05:55.162Z,21.68
2022-08-22T08:08:28.257Z,21.70
2022-08-22T08:11:00.353Z,21.72
2022-08-22T08:13:36.251Z,21.77
2022-08-22T08:16:11.077Z,21.84
2022-08-22T08:18:40.974Z,21.94
2022-08-22T08:21:31.612Z,22.04
2022-08-22T08:24:02.559Z,22.16
2022-08-22T08:26:35.504Z,22.23
2022-08-22T08:29:04.852Z,22.27
2022-08-22T08:31:43.400Z,22.26
2022-08-22T08:34:19.039Z,22.24
2022-08-22T08:36:54.418Z,22.20
2022-08-22T08:39:34.820Z,22.15
2022-08-22T08:43:11.043Z,22.06
2022-08-22T08:46:11.812Z,22.00
2022-08-22T08:49:16.061Z,21.94
2022-08-22T08:52:24.412Z,21.91
2022-08-22T08:55:21.853Z,21.90
2022-08-22T08:58:11.025Z,21.83
2022-08-22T09:01:08.277Z,21.74
2022-08-22T09:04:15.222Z,21.70
2022-08-22T09:07:27.181Z,21.66
2022-08-22T09:10:29.376Z,21.65
2022-08-22T09:13:44.139Z,21.68
2022-08-22T09:16:53.902Z,21.74
2022-08-22T09:19:49.070Z,21.79
2022-08-22T09:22:51.047Z,21.84
2022-08-22T09:25:36.704Z,21.87
2022-08-22T09:28:20.617Z,21.91
2022-08-22T09:31:21.807Z,21.93
2022-08-22T09:34:10.823Z,22.00
2022-08-22T09:37:04.531Z,22.03
2022-08-22T09:39:39.396Z,22.08
2022-08-22T09:42:19.069Z,22.14
2022-08-22T09:45:20.488Z,22.15
2022-08-22T09:48:06.363Z,22.17
2022-08-22T09:50:52.767Z,22.16
2022-08-22T09:53:53.076Z,22.19
2022-08-22T09:56:29.658Z,22.20
2022-08-22T09:59:07.257Z,22.21
2022-08-22T10:01:48.193Z,22.21
2022-08-22T10:04:47.667Z,22.17
2022-08-22T10:07:55.213Z,22.17
2022-08-22T10:11:11.850Z,22.17
2022-08-22T10:14:04.969Z,22.17
2022-08-22T10:17:08.729Z,22.17
2022-08-22T10:19:42.721Z,22.18
2022-08-22T10:22:30.363Z,22.17
2022-08-22T10:25:35.036Z,22.21
2022-08-22T10:28:33.480Z,22.30
2022-08-22T10:31:28.237Z,22.35
2022-08-22T10:34:07.970Z,22.38
2022-08-22T10:37:05.623Z,22.36
2022-08-22T10:39:45.398Z,22.40
2022-08-22T10:42:28.660Z,22.41
2022-08-22T10:45:36.802Z,22.41
2022-08-22T10:48:37.314Z,22.43
2022-08-22T10:51:20.561Z,22.46
2022-08-22T10:54:29.416Z,22.48
2022-08-22T10:57:15.510Z,22.51
2022-08-22T11:00:01.846Z,22.56
2022-08-22T11:02:42.305Z,22.63
2022-08-22T11:05:43.057Z,22.65
2022-08-22T11:09:12.606Z,22.66
2022-08-22T11:11:49.166Z,22.71
2022-08-22T11:15:05.138Z,22.71
2022-08-22T11:18:16.815Z,22.74
2022-08-22T11:20:59.328Z,22.79
2022-08-22T11:23:46.239Z,22.83
2022-08-22T11:26:38.237Z,22.87
2022-08-22T11:29:38.781Z,22.91
2022-08-22T11:32:18.278Z,23.00
2022-08-22T11:34:57.473Z,23.05
2022-08-22T11:37:56.532Z,23.10
2022-08-22T11:40:35.857Z,23.23
2022-08-22T11:43:32.352Z,23.36
2022-08-22T11:46:23.426Z,23.46
2022-08-22T11:49:18.836Z,23.62
2022-08-22T11:52:23.195Z,23.87
2022-08-22T11:55:17.675Z,23.95
2022-08-22T11:57:50.440Z,24.02
2022-08-22T12:00:33.444Z,24.07
2022-08-22T12:03:27.957Z,24.12
2022-08-22T12:06:07.698Z,24.22
2022-08-22T12:09:21.998Z,24.15
2022-08-22T12:12:17.157Z,24.08
2022-08-22T12:14:56.195Z,24.05
2022-08-22T12:18:17.439Z,24.00
2022-08-22T12:21:46.906Z,23.95
2022-08-22T12:24:44.965Z,23.98
2022-08-22T12:27:55.806Z,24.02
2022-08-22T12:30:37.933Z,24.01
2022-08-22T12:33:42.006Z,23.94
2022-08-22T12:36:39.104Z,23.87
2022-08-22T12:39:31.066Z,23.80
2022-08-22T12:42:32.039Z,23.78
2022-08-22T12:45:34.756Z,23.79
2022-08-22T12:48:21.121Z,23.89
2022-08-22T12:50:57.675Z,24.03
2022-08-22T12:53:54.734Z,24.24
2022-08-22T12:56:38.626Z,24.36
2022-08-22T12:59:27.452Z,24.40
2022-08-22T13:02:00.859Z,24.44
2022-08-22T13:04:34.331Z,24.45
2022-08-22T13:07:22.889Z,24.37
2022-08-22T13:09:58.040Z,24.32
2022-08-22T13:12:32.662Z,24.25
2022-08-22T13:15:10.772Z,24.19
2022-08-22T13:17:39.678Z,24.15
2022-08-22T13:20:21.931Z,24.09
2022-08-22T13:22:51.096Z,24.00
2022-08-22T13:25:29.523Z,23.88
2022-08-22T13:28:02.314Z,23.78
2022-08-22T13:30:37.507Z,23.70
2022-08-22T13:33:11.137Z,23.61
2022-08-22T13:35:52.265Z,23.49
2022-08-22T13:38:26.263Z,23.38
2022-08-22T13:40:59.076Z,23.28
2022-08-22T13:43:34.190Z,23.22
2022-08-22T13:46:11.073Z,23.16
2022-08-22T13:48:51.012Z,23.08
2022-08-22T13:51:29.849Z,23.03
2022-08-22T13:54:20.085Z,23.01
2022-08-22T13:57:03.068Z,23.02
2022-08-22T13:59:50.940Z,22.99
2022-08-22T14:02:43.469Z,22.93
2022-08-22T14:05:21.976Z,22.94
2022-08-22T14:08:02.156Z,22.92
2022-08-22T14:10:35.426Z,22.89
2022-08-22T14:13:38.943Z,22.84
2022-08-22T14:16:15.012Z,22.87
2022-08-22T14:18:50.918Z,22.88
2022-08-22T14:21:40.626Z,22.83
2022-08-22T14:24:20.089Z,22.82
2022-08-22T14:26:59.615Z,22.81
2022-08-22T14:29:46.011Z,22.81
2022-08-22T14:32:41.976Z,22.77
2022-08-22T14:35:23.199Z,22.76
2022-08-22T14:38:27.394Z,22.75
2022-08-22T14:41:05.723Z,22.84
2022-08-22T14:43:51.478Z,22.94
2022-08-22T14:46:30.372Z,23.04
2022-08-22T14:49:30.637Z,23.04
2022-08-22T14:52:11.020Z,22.99
2022-08-22T14:54:48.645Z,22.96
2022-08-22T14:57:20.457Z,22.96
2022-08-22T14:59:53.632Z,22.91
2022-08-22T15:02:31.555Z,22.90
2022-08-22T15:05:14.501Z,22.89
2022-08-22T15:07:43.357Z,22.89
2022-08-22T15:10:25.988Z,22.89
2022-08-22T15:13:02.664Z,22.91
2022-08-22T15:15:49.254Z,22.89
2022-08-22T15:18:37.223Z,22.87
2022-08-22T15:21:10.203Z,22.88
2022-08-22T15:23:46.696Z,22.86
2022-08-22T15:26:26.987Z,22.84
2022-08-22T15:29:05.768Z,22.83
2022-08-22T15:31:35.026Z,22.83
2022-08-22T15:34:13.404Z,22.78
2022-08-22T15:37:24.075Z,22.74
2022-08-22T15:40:08.475Z,22.70
2022-08-22T15:42:45.318Z,22.72
2022-08-22T15:45:29.896Z,22.72
2022-08-22T15:48:02.489Z,22.72
2022-08-22T15:50:37.805Z,22.72
2022-08-22T15:53:24.059Z,22.70
2022-08-22T15:56:29.248Z,22.62
2022-08-22T15:59:53.395Z,22.56
2022-08-22T16:02:36.739Z,22.52
2022-08-22T16:05:26.062Z,22.51
2022-08-22T16:08:11.437Z,22.53
2022-08-22T16:10:45.263Z,22.52
2022-08-22T16:13:42.265Z,22.51
2022-08-22T16:16:56.689Z,22.45
2022-08-22T16:19:27.906Z,22.49
2022-08-22T16:22:14.955Z,22.48
2022-08-22T16:25:10.273Z,22.46
2022-08-22T16:27:55.290Z,22.44
2022-08-22T16:30:36.575Z,22.40
2022-08-22T16:33:07.104Z,22.43
2022-08-22T16:36:39.491Z,22.32
2022-08-22T16:39:31.574Z,22.30
2022-08-22T16:42:35.613Z,22.25
2022-08-22T16:45:17.696Z,22.23
2022-08-22T16:48:02.151Z,22.25
2022-08-22T16:50:40.969Z,22.16
2022-08-22T16:53:33.235Z,22.13
2022-08-22T16:56:21.587Z,22.11
2022-08-22T16:59:38.230Z,22.08
2022-08-22T17:02:46.618Z,22.05
2022-08-22T17:05:39.274Z,22.04
2022-08-22T17:08:38.584Z,22.02
2022-08-22T17:11:24.002Z,22.04
2022-08-22T17:14:10.067Z,22.02
2022-08-22T17:17:09.100Z,21.99
2022-08-22T17:19:54.003Z,21.98
2022-08-22T17:22:32.990Z,21.99
2022-08-22T17:25:21.921Z,21.95
2022-08-22T17:28:07.494Z,21.94
2022-08-22T17:30:47.184Z,21.93
2022-08-22T17:33:42.244Z,21.94
2022-08-22T17:36:27.226Z,21.93
2022-08-22T17:39:10.193Z,21.91
2022-08-22T17:41:51.241Z,21.89
2022-08-22T17:44:30.757Z,21.88
2022-08-22T17:47:07.367Z,21.87
2022-08-22T17:49:56.039Z,21.87
2022-08-22T17:52:37.687Z,21.90
2022-08-22T17:55:18.062Z,21.92
2022-08-22T17:57:54.509Z,21.94
2022-08-22T18:00:32.458Z,21.95
2022-08-22T18:03:09.488Z,21.95
2022-08-22T18:05:51.686Z,21.95
2022-08-22T18:09:12.890Z,21.95
2022-08-22T18:11:28.628Z,21.91
2022-08-22T18:14:05.159Z,21.93
2022-08-22T18:16:44.698Z,21.92
2022-08-22T18:19:39.764Z,21.87
2022-08-22T18:22:14.208Z,21.88
2022-08-22T18:24:52.560Z,21.84
2022-08-22T18:27:34.966Z,21.80
2022-08-22T18:30:16.800Z,21.76
2022-08-22T18:32:57.612Z,21.73
2022-08-22T18:35:33.257Z,21.71
2022-08-22T18:38:19.743Z,21.67
2022-08-22T18:40:55.996Z,21.64
2022-08-22T18:43:37.347Z,21.57
2022-08-22T18:46:31.922Z,21.50
2022-08-22T18:49:15.469Z,21.45
2022-08-22T18:51:45.182Z,21.44
2022-08-22T18:54:37.201Z,21.36
2022-08-22T18:57:30.746Z,21.35
2022-08-22T19:00:12.635Z,21.33
2022-08-22T19:03:25.624Z,21.30
2022-08-22T19:06:32.540Z,21.29
2022-08-22T19:09:43.209Z,21.28
2022-08-22T19:12:32.207Z,21.25
2022-08-22T19:15:27.579Z,21.21
2022-08-22T19:18:36.685Z,21.20
2022-08-22T19:21:40.207Z,21.16
2022-08-22T19:24:14.440Z,21.13
2022-08-22T19:26:48.097Z,21.11
2022-08-22T19:30:00.899Z,21.02
2022-08-22T19:33:01.928Z,21.00
2022-08-22T19:35:44.013Z,21.02
2022-08-22T19:39:10.097Z,20.96
2022-08-22T19:41:43.930Z,20.97
2022-08-22T19:44:33.006Z,20.94
2022-08-22T19:47:11.837Z,20.91
2022-08-22T19:49:44.267Z,20.90
2022-08-22T19:52:27.099Z,20.87
2022-08-22T19:55:13.075Z,20.86
2022-08-22T19:57:50.626Z,20.86
2022-08-22T20:00:23.611Z,20.87
2022-08-22T20:03:03.685Z,20.87
2022-08-22T20:05:56.676Z,20.87
2022-08-22T20:08:51.886Z,20.86
2022-08-22T20:11:39.117Z,20.86
2022-08-22T20:14:30.089Z,20.87
2022-08-22T20:17:13.626Z,20.89
2022-08-22T20:22:44.483Z,20.94
2022-08-22T20:25:42.048Z,20.98
2022-08-22T20:28:35.489Z,21.01
2022-08-22T20:31:12.383Z,21.04
2022-08-22T20:33:46.118Z,21.09
2022-08-22T20:36:28.875Z,21.12
2022-08-22T20:39:02.801Z,21.16
2022-08-22T20:41:36.808Z,21.17
2022-08-22T20:44:16.044Z,21.19
2022-08-22T20:46:55.682Z,21.20
2022-08-22T20:49:29.478Z,21.24
2022-08-22T20:52:02.158Z,21.27
2022-08-22T20:54:34.550Z,21.26
2022-08-22T20:57:14.231Z,21.28
2022-08-22T20:59:53.043Z,21.29
2022-08-22T21:02:27.154Z,21.31
2022-08-22T21:05:01.585Z,21.31
2022-08-22T21:07:33.440Z,21.33
2022-08-22T21:10:32.758Z,21.34
2022-08-22T21:13:09.205Z,21.33
2022-08-22T21:15:42.871Z,21.35
2022-08-22T21:18:13.844Z,21.37
2022-08-22T21:20:42.571Z,21.38
2022-08-22T21:23:15.501Z,21.37
2022-08-22T21:25:56.588Z,21.36
2022-08-22T21:28:36.043Z,21.37
2022-08-22T21:31:14.348Z,21.40
2022-08-22T21:33:45.994Z,21.42
2022-08-22T21:36:18.255Z,21.43
2022-08-22T21:38:54.519Z,21.42
2022-08-22T21:41:29.609Z,21.41
2022-08-22T21:44:17.633Z,21.41
2022-08-22T21:46:47.532Z,21.41
2022-08-22T21:49:24.356Z,21.38
2022-08-22T21:51:53.288Z,21.40
2022-08-22T21:54:41.642Z,21.39
2022-08-22T21:57:35.522Z,21.38
2022-08-22T22:00:09.135Z,21.41
2022-08-22T22:02:43.693Z,21.39
2022-08-22T22:05:17.009Z,21.38
2022-08-22T22:07:48.029Z,21.39
2022-08-22T22:10:19.401Z,21.38
2022-08-22T22:12:51.306Z,21.39
2022-08-22T22:15:23.717Z,21.39
2022-08-22T22:17:54.063Z,21.41
2022-08-22T22:20:26.279Z,21.42
2022-08-22T22:22:55.783Z,21.46
2022-08-22T22:25:39.089Z,21.45
2022-08-22T22:28:16.936Z,21.44
2022-08-22T22:30:50.511Z,21.47
2022-08-22T22:33:22.143Z,21.49
2022-08-22T22:35:52.045Z,21.49
2022-08-22T22:38:24.102Z,21.51
2022-08-22T22:40:53.178Z,21.52
2022-08-22T22:43:21.572Z,21.54
2022-08-22T22:45:49.956Z,21.55
2022-08-22T22:48:24.070Z,21.56
2022-08-22T22:50:54.170Z,21.57
2022-08-22T22:53:38.150Z,21.57
2022-08-22T22:56:09.344Z,21.57
2022-08-22T22:58:38.313Z,21.58
2022-08-22T23:01:10.748Z,21.57
2022-08-22T23:03:40.653Z,21.58
2022-08-22T23:06:13.616Z,21.59
2022-08-22T23:08:42.646Z,21.62
2022-08-22T23:11:12.873Z,21.60
2022-08-22T23:13:43.143Z,21.60
2022-08-22T23:16:15.564Z,21.57
2022-08-22T23:18:45.932Z,21.54
2022-08-22T23:21:17.518Z,21.49
2022-08-22T23:23:46.887Z,21.46
2022-08-22T23:26:16.536Z,21.40
2022-08-22T23:28:45.027Z,21.34
2022-08-22T23:31:29.679Z,21.26
2022-08-22T23:34:04.933Z,21.23
2022-08-22T23:36:33.702Z,21.24
2022-08-22T23:39:02.216Z,21.20
2022-08-22T23:41:30.583Z,21.17
2022-08-22T23:43:59.083Z,21.15
2022-08-22T23:46:28.663Z,21.10
2022-08-22T23:49:01.341Z,21.02
2022-08-22T23:51:29.961Z,20.99
2022-08-22T23:54:00.010Z,20.94
2022-08-22T23:56:32.545Z,20.88
2022-08-22T23:59:05.825Z,20.83
